Latest Weather Observations for Learmonth

IDW60801

Issued at 1:02 pm WST Sunday 21 December 2014 (issued every 30 minutes, with the page automatically refreshed every 10 minutes)

About weather observations | Map of weather stations | Latest weather observations for WA | Other Formats
Station Details ID: 005007 Name: LEARMONTH AIRPORT Lat: -22.24 Lon: 114.10 Height: 5.0 m
Data from the previous 72 hours. | See also: Recent months at Learmonth
Date/Time
WST
Temp
°C
App
Temp
°C
Dew
Point
Rel
Hum
%
Delta-T
°C
Wind Press
QNH
hPa
Press
MSL
hPa
Rain
since 9 am
mm
Dir
 
Spd
km/h
Gust
km/h
Spd
kts
Gust
kts
21/01:00pm 32.9 29.2 11.4 27 12.6 E 22 28 12 15 1007.2 - 0.0
21/12:30pm 33.0 29.3 12.8 29 12.1 E 24 28 13 15 1007.6 - 0.0
21/12:00pm 32.5 29.5 13.7 32 11.4 E 22 28 12 15 1008.0 1007.9 0.0
21/11:30am 32.9 30.0 12.4 28 12.2 ESE 19 28 10 15 1008.3 - 0.0
21/11:00am 31.7 29.3 12.5 31 11.4 ESE 17 26 9 14 1008.8 - 0.0
21/10:30am 31.1 29.6 13.2 33 10.7 SE 13 20 7 11 1009.0 - 0.0
21/10:00am 30.3 28.9 13.4 35 10.1 S 13 24 7 13 1009.2 - 0.0
21/09:30am 29.0 26.6 13.8 39 9.1 SSW 19 24 10 13 1009.3 - 0.0
21/09:00am 27.7 25.4 14.2 43 8.1 S 19 26 10 14 1009.4 1009.3 0.0
21/08:30am 26.9 23.9 14.8 47 7.3 S 24 33 13 18 1009.5 - 0.0
21/08:00am 24.6 21.9 15.5 57 5.5 SSW 24 32 13 17 1009.4 - 0.0
21/07:30am 23.2 20.7 16.1 64 4.3 SSW 24 32 13 17 1009.7 - 0.0
21/07:00am 22.1 19.2 16.1 69 3.6 SSW 26 30 14 16 1009.8 - 0.0
21/06:30am 21.1 19.6 16.7 76 2.7 SSW 20 28 11 15 1009.7 - 0.0
21/06:00am 20.3 18.8 16.7 80 2.2 SSW 20 26 11 14 1009.6 1009.5 0.0
21/05:30am 20.3 18.4 16.7 80 2.2 SSW 22 32 12 17 1009.2 - 0.0
21/05:00am 20.3 18.8 16.8 80 2.1 SSW 20 28 11 15 1008.8 - 0.0
21/04:30am 20.6 18.9 17.2 81 2.1 SSW 22 28 12 15 1008.7 - 0.0
21/04:00am 20.7 19.1 17.4 81 2.0 SSW 22 28 12 15 1008.7 - 0.0
21/03:30am 20.9 19.8 17.7 82 2.0 SSW 20 28 11 15 1008.8 - 0.0
21/03:00am 21.0 19.5 17.8 82 2.0 SSW 22 28 12 15 1008.8 1008.7 0.0
21/02:30am 21.2 19.3 17.6 80 2.2 SSW 24 33 13 18 1008.6 - 0.0
21/02:00am 21.3 19.4 17.7 80 2.2 SSW 24 32 13 17 1008.7 - 0.0
21/01:30am 21.6 19.8 17.9 79 2.3 SSW 24 33 13 18 1008.7 - 0.0
21/01:00am 21.8 20.0 17.9 78 2.4 SSW 24 33 13 18 1008.6 - 0.0
21/12:30am 21.9 20.1 17.9 78 2.5 SSW 24 32 13 17 1008.9 - 0.0
21/12:00am 22.0 20.0 18.2 79 2.4 SSW 26 35 14 19 1009.0 1008.9 0.0
 
Date/Time
WST
Temp
°C
App
Temp
°C
Dew
Point
Rel
Hum
%
Delta-T
°C
Wind Press
QNH
hPa
Press
MSL
hPa
Rain
since 9 am
mm
Dir
 
Spd
km/h
Gust
km/h
Spd
kts
Gust
kts
20/11:30pm 22.3 19.8 18.1 77 2.6 SSW 28 33 15 18 1009.2 - 0.0
20/11:00pm 22.6 19.8 18.1 76 2.8 SSW 30 41 16 22 1009.3 - 0.0
20/10:30pm 22.9 21.7 17.6 72 3.3 SSW 20 26 11 14 1009.6 - 0.0
20/10:00pm 23.1 21.5 17.5 70 3.5 SSW 22 30 12 16 1009.6 - 0.0
20/09:30pm 23.3 20.9 17.3 69 3.7 SSW 26 35 14 19 1009.2 - 0.0
20/09:00pm 23.6 20.7 17.1 67 4.0 SW 28 35 15 19 1008.9 1008.8 0.0
20/08:30pm 23.9 21.4 17.1 65 4.2 SW 26 37 14 20 1008.8 - 0.0
20/08:00pm 24.2 21.2 16.9 63 4.5 SW 28 43 15 23 1008.7 - 0.0
20/07:30pm 24.7 20.9 16.8 61 4.9 SW 32 41 17 22 1008.2 - 0.0
20/07:00pm 25.5 21.6 16.4 57 5.6 SW 32 46 17 25 1007.8 - 0.0
20/06:30pm 27.1 23.1 16.3 51 6.7 SW 32 41 17 22 1007.7 - 0.0
20/06:00pm 28.7 24.5 15.7 45 8.0 SW 32 41 17 22 1007.3 1007.2 0.0
20/05:30pm 29.7 24.6 14.8 40 9.1 SW 35 46 19 25 1007.2 - 0.0
20/05:00pm 31.2 26.4 14.1 35 10.4 SW 32 44 17 24 1007.1 - 0.0
20/04:30pm 32.3 27.5 14.1 33 11.1 SSW 32 41 17 22 1007.1 - 0.0
20/04:00pm 32.9 28.1 14.1 32 11.5 SSW 32 43 17 23 1007.3 - 0.0
20/03:30pm 34.6 30.6 14.1 29 12.6 SW 28 41 15 22 1007.4 - 0.0
20/03:22pm 34.5 29.7 14.0 29 12.6 SW 32 41 17 22 1007.5 - 0.0
20/03:00pm 34.4 33.6 14.0 29 12.5 ESE 11 19 6 10 1007.7 1007.6 0.0
20/02:30pm 32.4 30.8 14.9 34 10.8 NNE 17 24 9 13 1008.0 - 0.0
20/02:00pm 33.6 31.6 12.8 28 12.5 NE 15 20 8 11 1008.2 - 0.0
20/01:30pm 35.4 33.5 13.0 26 13.6 W 15 20 8 11 1008.3 - 0.0
20/01:00pm 35.5 32.9 13.1 26 13.6 SW 19 28 10 15 1008.6 - 0.0
20/12:30pm 33.4 30.5 12.2 27 12.6 E 19 24 10 13 1009.0 - 0.0
20/12:00pm 32.7 30.7 14.0 32 11.4 ESE 17 26 9 14 1009.5 1009.4 0.0
20/11:30am 33.7 32.0 11.2 25 13.2 S 11 20 6 11 1009.8 - 0.0
20/11:00am 32.9 30.3 10.6 25 12.9 SW 15 26 8 14 1010.1 - 0.0
20/10:30am 30.6 27.6 12.7 33 10.6 SW 20 24 11 13 1010.6 - 0.0
20/10:00am 29.6 27.1 13.5 37 9.6 SSW 19 28 10 15 1011.0 - 0.0
20/09:30am 29.0 26.0 14.7 41 8.7 SSW 24 30 13 16 1011.3 - 0.0
20/09:00am 27.0 24.5 15.1 48 7.2 S 22 30 12 16 1011.7 1011.6 0.0
20/08:30am 25.7 23.2 16.1 55 5.9 S 24 32 13 17 1011.9 - 0.0
20/08:00am 24.7 22.2 16.2 59 5.2 S 24 32 13 17 1011.8 - 0.0
20/07:30am 23.4 20.4 16.7 66 4.1 SSW 28 35 15 19 1011.7 - 0.0
20/07:00am 22.3 19.3 16.7 70 3.4 S 28 35 15 19 1011.7 - 0.0
20/06:30am 21.1 19.5 17.4 79 2.3 SSW 22 28 12 15 1011.4 - 0.0
20/06:00am 20.2 19.0 17.6 85 1.6 SSW 20 24 11 13 1011.1 1011.0 0.0
20/05:30am 20.0 19.1 17.7 86 1.4 SSW 19 22 10 12 1010.9 - 0.0
20/05:00am 20.2 19.7 17.8 86 1.5 SSW 17 22 9 12 1010.6 - 0.0
20/04:30am 20.4 19.6 18.0 86 1.5 SSW 19 22 10 12 1010.5 - 0.0
20/04:00am 20.6 20.2 18.0 85 1.6 SSW 17 20 9 11 1010.6 - 0.0
20/03:30am 20.8 20.0 18.1 84 1.7 SSW 19 24 10 13 1010.5 - 0.0
20/03:00am 21.0 20.3 18.3 84 1.7 SSW 19 24 10 13 1010.6 1010.5 0.0
20/02:30am 21.3 20.6 18.6 84 1.7 SSW 20 28 11 15 1010.3 - 0.0
20/02:00am 21.4 20.0 18.7 84 1.7 SSW 24 32 13 17 1010.1 - 0.0
20/01:30am 21.6 20.9 18.6 83 1.9 SSW 20 24 11 13 1010.3 - 0.0
20/01:00am 21.9 21.2 18.6 81 2.1 SSW 20 28 11 15 1010.6 - 0.0
20/12:30am 22.2 21.3 18.2 78 2.5 SW 20 30 11 16 1010.7 - 0.0
20/12:00am 22.3 20.8 18.6 79 2.3 SW 24 32 13 17 1011.1 1011.0 0.0
 
Date/Time
WST
Temp
°C
App
Temp
°C
Dew
Point
Rel
Hum
%
Delta-T
°C
Wind Press
QNH
hPa
Press
MSL
hPa
Rain
since 9 am
mm
Dir
 
Spd
km/h
Gust
km/h
Spd
kts
Gust
kts
19/11:30pm 22.4 21.4 18.9 80 2.2 SSW 22 30 12 16 1011.4 - 0.0
19/11:00pm 22.7 22.1 18.9 79 2.4 SSW 20 28 11 15 1011.7 - 0.0
19/10:30pm 23.1 22.1 18.8 77 2.7 SSW 22 30 12 16 1011.7 - 0.0
19/10:00pm 23.4 22.1 19.0 76 2.8 SW 24 32 13 17 1011.5 - 0.0
19/09:30pm 23.8 22.1 18.9 74 3.1 SW 26 33 14 18 1011.1 - 0.0
19/09:00pm 24.4 23.0 18.7 70 3.6 SW 24 32 13 17 1010.9 1010.8 0.0
19/08:30pm 25.1 22.9 17.9 64 4.5 SW 26 33 14 18 1010.6 - 0.0
19/08:00pm 26.2 24.5 17.2 57 5.6 WSW 22 28 12 15 1010.6 - 0.0
19/07:30pm 27.1 24.8 16.6 52 6.5 SW 24 30 13 16 1010.2 - 0.0
19/07:00pm 28.8 26.1 14.6 42 8.6 WSW 22 28 12 15 1009.8 - 0.0
19/06:30pm 30.2 26.4 13.7 36 9.9 SW 26 32 14 17 1009.2 - 0.0
19/06:00pm 31.9 28.5 13.7 33 11.0 W 24 32 13 17 1008.7 1008.6 0.0
19/05:30pm 33.2 29.0 11.1 26 12.9 W 24 30 13 16 1008.3 - 0.0
19/05:00pm 33.8 29.2 9.8 23 13.8 WSW 24 32 13 17 1008.0 - 0.0
19/04:30pm 34.5 29.9 11.2 24 13.7 W 26 35 14 19 1007.9 - 0.0
19/04:00pm 35.1 29.9 10.4 22 14.4 W 28 35 15 19 1007.6 - 0.0
19/03:30pm 35.3 30.6 10.8 22 14.4 W 26 35 14 19 1007.9 - 0.0
19/03:00pm 35.9 32.1 12.3 24 14.2 W 24 32 13 17 1008.0 1007.9 0.0
19/02:30pm 35.6 33.0 14.9 29 12.9 W 22 28 12 15 1008.1 - 0.0
19/02:00pm 35.8 34.1 16.3 31 12.4 WSW 20 24 11 13 1008.3 - 0.0
19/01:30pm 34.1 33.2 18.3 39 10.3 NNE 20 26 11 14 1008.3 - 0.0
19/01:00pm 33.7 33.6 19.5 43 9.4 NE 19 26 10 14 1008.5 - 0.0
19/12:30pm 31.6 31.9 20.5 51 7.4 NNE 19 22 10 12 1008.9 - 0.0
19/12:00pm 33.2 31.7 15.4 34 11.1 ENE 17 20 9 11 1009.1 1009.0 0.0
19/11:30am 34.2 33.3 14.9 31 12.0 ENE 13 19 7 10 1009.4 - 0.0
19/11:00am 34.6 33.0 12.9 27 13.1 W 13 20 7 11 1009.7 - 0.0
19/10:30am 34.1 32.2 13.1 28 12.7 WSW 15 20 8 11 1009.9 - 0.0
19/10:00am 33.0 31.9 13.0 29 12.0 SW 11 20 6 11 1010.2 - 0.0
19/09:30am 31.6 30.9 15.3 37 10.1 WSW 13 19 7 10 1010.3 - 0.0
19/09:00am 30.3 28.9 15.6 41 9.1 WSW 17 24 9 13 1010.3 1010.2 0.0
19/08:30am 29.0 27.6 16.9 48 7.6 SW 20 28 11 15 1010.4 - 0.0
19/08:00am 27.5 26.4 17.7 55 6.2 SW 20 26 11 14 1010.0 - 0.0
19/07:30am 25.9 24.8 18.7 64 4.6 SW 22 30 12 16 1009.9 - 0.0
19/07:00am 24.5 24.0 19.0 71 3.5 SW 20 26 11 14 1009.5 - 0.0
19/06:30am 23.3 23.4 19.2 78 2.6 WSW 17 22 9 12 1009.3 - 0.0
19/06:00am 22.3 22.5 19.3 83 1.9 SW 17 20 9 11 1008.9 1008.8 0.0
19/05:30am 22.1 22.3 19.3 84 1.8 SW 17 24 9 13 1008.6 - 0.0
19/05:00am 22.0 22.2 19.3 85 1.7 SW 17 22 9 12 1008.5 - 0.0
19/04:30am 21.9 22.0 19.2 85 1.7 SW 17 20 9 11 1008.3 - 0.0
19/04:00am 22.3 23.1 19.0 81 2.1 SSW 13 19 7 10 1008.4 - 0.0
19/03:30am 22.7 22.7 18.9 79 2.4 SW 17 24 9 13 1008.2 - 0.0
19/03:00am 22.9 22.2 18.6 77 2.7 WSW 20 28 11 15 1007.9 1007.8 0.0
19/02:30am 23.2 22.3 18.1 73 3.2 SW 20 28 11 15 1007.9 - 0.0
19/02:00am 23.3 21.6 18.2 73 3.2 SW 24 32 13 17 1007.9 - 0.0
19/01:30am 23.3 21.9 18.7 75 2.9 SW 24 30 13 16 1008.2 - 0.0
19/01:00am 23.6 22.4 18.4 72 3.3 SW 22 28 12 15 1008.4 - 0.0
19/12:30am 23.8 22.8 17.9 69 3.7 SW 20 26 11 14 1008.6 - 0.0
19/12:00am 23.9 22.9 18.0 69 3.7 SW 20 28 11 15 1008.7 1008.6 0.0
 
Date/Time
WST
Temp
°C
App
Temp
°C
Dew
Point
Rel
Hum
%
Delta-T
°C
Wind Press
QNH
hPa
Press
MSL
hPa
Rain
since 9 am
mm
Dir
 
Spd
km/h
Gust
km/h
Spd
kts
Gust
kts
18/11:30pm 24.0 22.5 17.6 67 4.0 SW 22 28 12 15 1008.9 - 0.0
18/11:00pm 24.4 22.9 16.8 62 4.7 SW 20 30 11 16 1008.8 - 0.0
18/10:30pm 24.6 22.2 16.5 60 5.0 SW 24 35 13 19 1008.6 - 0.0
18/10:00pm 24.8 23.2 16.5 60 5.1 SW 20 28 11 15 1008.5 - 0.0
18/09:30pm 24.9 23.0 16.8 60 5.0 SW 22 28 12 15 1008.3 - 0.0
18/09:00pm 25.2 23.0 16.8 59 5.2 WSW 24 32 13 17 1008.2 1008.1 0.0
18/08:30pm 25.8 22.2 16.2 55 5.9 SW 30 33 16 18 1008.0 - 0.0
18/08:00pm 26.4 23.9 16.2 53 6.3 WSW 24 32 13 17 1007.9 - 0.0
18/07:30pm 27.2 24.0 16.2 51 6.8 WSW 28 37 15 20 1007.5 - 0.0
18/07:00pm 28.2 25.3 16.1 47 7.5 WSW 26 32 14 17 1007.2 - 0.0
18/06:30pm 29.3 25.8 15.5 43 8.5 WSW 28 33 15 18 1006.8 - 0.0
18/06:00pm 30.9 26.8 15.0 38 9.8 WSW 30 39 16 21 1006.5 1006.4 0.0
18/05:30pm 31.8 27.4 14.0 34 10.8 WSW 30 39 16 21 1006.5 - 0.0
18/05:00pm 33.0 28.6 14.0 31 11.6 W 30 35 16 19 1006.3 - 0.0
18/04:30pm 34.0 29.1 13.7 29 12.4 W 32 39 17 21 1006.2 - 0.0
18/04:00pm 36.4 31.1 11.1 21 15.0 W 30 37 16 20 1006.0 - 0.0
18/03:30pm 38.3 32.9 11.0 19 16.2 WSW 30 39 16 21 1005.8 - 0.0
18/03:00pm 37.2 33.4 14.7 26 14.1 WNW 28 39 15 21 1005.8 1005.7 0.0
18/02:30pm 37.9 35.7 14.8 25 14.5 WNW 20 28 11 15 1006.1 - 0.0
18/02:00pm 37.3 32.2 0.6 10 18.6 NNE 17 24 9 13 1006.5 - 0.0
18/01:30pm 36.5 32.2 5.1 14 17.0 NE 17 22 9 12 1006.7 - 0.0

Other Formats:

Comma delimited format used in spreadsheet applications
http://www.bom.gov.au/fwo/IDW60801/IDW60801.94302.axf

JavaScript Object Notation format (JSON) in row-major order
http://www.bom.gov.au/fwo/IDW60801/IDW60801.94302.json